createdAt,value
2017-09-19T00:02:25.691Z,64.20
2017-09-19T00:04:53.174Z,61.75
2017-09-19T00:07:20.655Z,60.58
2017-09-19T00:09:48.145Z,60.58
2017-09-19T00:12:15.622Z,60.50
2017-09-19T00:14:43.883Z,59.58
2017-09-19T00:17:11.375Z,64.72
2017-09-19T00:19:38.838Z,67.30
2017-09-19T00:22:06.332Z,64.90
2017-09-19T00:24:33.811Z,64.12
2017-09-19T00:27:01.303Z,57.33
2017-09-19T00:29:28.775Z,63.60
2017-09-19T00:31:56.589Z,58.45
2017-09-19T00:34:24.055Z,68.80
2017-09-19T00:36:51.539Z,72.32
2017-09-19T00:39:19.001Z,66.65
2017-09-19T00:41:46.483Z,70.80
2017-09-19T00:44:13.954Z,65.57
2017-09-19T00:46:41.463Z,73.05
2017-09-19T00:49:08.931Z,62.28
2017-09-19T00:51:36.410Z,67.05
2017-09-19T00:54:03.875Z,68.10
2017-09-19T00:56:31.363Z,61.97
2017-09-19T00:58:58.842Z,68.82
2017-09-19T01:01:26.330Z,67.57
2017-09-19T01:03:53.814Z,70.43
2017-09-19T01:06:22.121Z,73.87
2017-09-19T01:08:49.606Z,74.35
2017-09-19T01:11:17.083Z,71.47
2017-09-19T01:13:44.569Z,69.50
2017-09-19T01:16:12.047Z,76.12
2017-09-19T01:18:39.546Z,78.68
2017-09-19T01:21:07.387Z,69.12
2017-09-19T01:23:35.710Z,72.10
2017-09-19T01:26:03.179Z,59.45
2017-09-19T01:28:30.675Z,71.22
2017-09-19T01:30:58.154Z,63.78
2017-09-19T01:33:25.635Z,60.50
2017-09-19T01:35:53.110Z,64.75
2017-09-19T01:38:20.604Z,69.10
2017-09-19T01:40:48.079Z,71.05
2017-09-19T01:43:15.611Z,56.35
2017-09-19T01:45:43.094Z,70.00
2017-09-19T01:48:10.568Z,75.72
2017-09-19T01:50:38.062Z,65.65
2017-09-19T01:53:05.531Z,70.57
2017-09-19T01:55:33.015Z,71.87
2017-09-19T01:58:00.479Z,71.05
2017-09-19T02:00:27.996Z,64.78
2017-09-19T02:02:55.458Z,61.58
2017-09-19T02:05:22.951Z,71.45
2017-09-19T02:07:50.423Z,67.55
2017-09-19T02:10:17.911Z,62.50
2017-09-19T02:12:46.144Z,71.28
2017-09-19T02:15:14.398Z,70.87
2017-09-19T02:17:41.883Z,65.85
2017-09-19T02:20:09.365Z,68.78
2017-09-19T02:22:36.826Z,59.72
2017-09-19T02:25:05.095Z,64.80
2017-09-19T02:27:32.559Z,67.00
2017-09-19T02:30:00.820Z,60.85
2017-09-19T02:32:28.293Z,67.07
2017-09-19T02:34:55.771Z,62.08
2017-09-19T02:37:35.165Z,60.40
2017-09-19T02:40:14.449Z,62.03
2017-09-19T02:42:50.779Z,61.20
2017-09-19T02:45:18.269Z,64.18
2017-09-19T02:47:45.735Z,64.93
2017-09-19T02:50:13.215Z,65.37
2017-09-19T02:52:40.691Z,58.80
2017-09-19T02:55:08.178Z,63.55
2017-09-19T02:57:36.420Z,61.88
2017-09-19T03:00:03.903Z,69.18
2017-09-19T03:02:43.826Z,63.10
2017-09-19T03:05:23.926Z,64.68
2017-09-19T03:07:53.076Z,60.30
2017-09-19T03:10:20.565Z,58.80
2017-09-19T03:12:48.808Z,59.65
2017-09-19T03:15:16.290Z,58.35
2017-09-19T03:17:44.535Z,55.20
2017-09-19T03:20:12.031Z,58.17
2017-09-19T03:22:39.503Z,59.45
2017-09-19T03:25:06.991Z,59.63
2017-09-19T03:27:34.462Z,70.12
2017-09-19T03:30:01.986Z,67.80
2017-09-19T03:32:29.564Z,69.40
2017-09-19T03:34:57.054Z,67.78
2017-09-19T03:37:24.542Z,64.25
2017-09-19T03:39:52.772Z,62.25
2017-09-19T03:42:20.263Z,60.72
2017-09-19T03:44:47.726Z,75.28
2017-09-19T03:47:15.982Z,71.20
2017-09-19T03:49:43.446Z,79.45
2017-09-19T03:52:10.959Z,84.03
2017-09-19T03:54:38.419Z,70.37
2017-09-19T03:57:05.882Z,88.60
2017-09-19T03:59:33.379Z,73.18
2017-09-19T04:02:00.886Z,73.90
2017-09-19T04:04:28.395Z,79.53
2017-09-19T04:06:55.880Z,73.07
2017-09-19T04:09:24.110Z,75.30
2017-09-19T04:11:52.349Z,66.62
2017-09-19T04:14:19.843Z,79.50
2017-09-19T04:16:47.316Z,72.00
2017-09-19T04:19:14.809Z,73.05
2017-09-19T04:21:42.279Z,71.25
2017-09-19T04:24:09.790Z,73.25
2017-09-19T04:26:37.258Z,70.95
2017-09-19T04:29:05.532Z,73.75
2017-09-19T04:31:33.792Z,86.95
2017-09-19T04:34:01.283Z,76.95
2017-09-19T04:36:29.516Z,78.03
2017-09-19T04:38:57.007Z,73.90
2017-09-19T04:41:26.166Z,70.05
2017-09-19T04:43:53.639Z,69.22
2017-09-19T04:46:21.127Z,84.82
2017-09-19T04:48:48.811Z,69.85
2017-09-19T04:51:16.298Z,64.78
2017-09-19T04:53:43.763Z,76.75
2017-09-19T04:56:11.259Z,70.75
2017-09-19T04:58:38.723Z,62.58
2017-09-19T05:01:06.971Z,74.80
2017-09-19T05:03:34.448Z,62.42
2017-09-19T05:06:02.717Z,65.95
2017-09-19T05:08:30.190Z,72.30
2017-09-19T05:10:57.679Z,72.32
2017-09-19T05:13:25.151Z,65.45
2017-09-19T05:15:52.669Z,70.18
2017-09-19T05:18:20.177Z,68.80
2017-09-19T05:20:48.440Z,84.82
2017-09-19T05:23:15.910Z,83.22
2017-09-19T05:25:43.400Z,89.30
2017-09-19T05:28:11.628Z,96.07
2017-09-19T05:30:39.124Z,85.82
2017-09-19T05:33:07.371Z,81.87
2017-09-19T05:35:34.872Z,82.55
2017-09-19T05:38:03.106Z,79.97
2017-09-19T05:40:31.347Z,85.50
2017-09-19T05:42:58.827Z,83.62
2017-09-19T05:45:26.295Z,89.57
2017-09-19T05:47:54.009Z,92.07
2017-09-19T05:50:22.243Z,99.87
2017-09-19T05:52:50.491Z,111.40
2017-09-19T05:55:18.069Z,106.45
2017-09-19T05:57:46.342Z,89.00
2017-09-19T06:00:13.817Z,83.80
2017-09-19T06:02:41.429Z,96.75
2017-09-19T06:05:09.150Z,96.03
2017-09-19T06:07:36.629Z,91.47
2017-09-19T06:10:04.138Z,92.12
2017-09-19T06:12:31.606Z,88.12
2017-09-19T06:14:59.093Z,82.57
2017-09-19T06:17:26.557Z,98.10
2017-09-19T06:19:54.789Z,106.07
2017-09-19T06:22:22.271Z,104.07
2017-09-19T06:24:49.753Z,110.88
2017-09-19T06:27:18.003Z,123.22
2017-09-19T06:29:45.502Z,117.37
2017-09-19T06:32:12.964Z,108.28
2017-09-19T06:34:40.454Z,133.55
2017-09-19T06:37:07.930Z,128.55
2017-09-19T06:39:35.419Z,109.37
2017-09-19T06:42:02.907Z,102.82
2017-09-19T06:44:30.386Z,114.30
2017-09-19T06:46:57.846Z,105.97
2017-09-19T06:49:25.338Z,103.22
2017-09-19T06:51:53.570Z,109.07
2017-09-19T06:54:21.057Z,113.72
2017-09-19T06:56:48.553Z,106.63
2017-09-19T06:59:16.039Z,122.80
2017-09-19T07:01:43.543Z,116.12
2017-09-19T07:04:11.833Z,116.32
2017-09-19T07:06:39.323Z,142.00
2017-09-19T07:09:06.818Z,116.45
2017-09-19T07:11:34.289Z,122.43
2017-09-19T07:14:02.587Z,128.98
2017-09-19T07:16:30.071Z,124.62
2017-09-19T07:18:57.551Z,116.07
2017-09-19T07:21:25.041Z,129.77
2017-09-19T07:23:53.310Z,119.55
2017-09-19T07:26:20.787Z,115.50
2017-09-19T07:28:49.044Z,126.28
2017-09-19T07:31:16.545Z,121.95
2017-09-19T07:33:44.080Z,130.23
2017-09-19T07:36:11.569Z,129.95
2017-09-19T07:38:41.822Z,135.43
2017-09-19T07:41:09.318Z,128.07
2017-09-19T07:43:36.800Z,129.40
2017-09-19T07:46:04.322Z,146.45
2017-09-19T07:48:31.803Z,153.65
2017-09-19T07:50:59.285Z,136.43
2017-09-19T07:53:26.765Z,129.52
2017-09-19T07:55:54.254Z,137.35
2017-09-19T07:58:22.502Z,121.65
2017-09-19T08:00:49.994Z,119.65
2017-09-19T08:03:17.465Z,142.68
2017-09-19T08:05:44.974Z,111.85
2017-09-19T08:08:12.429Z,137.00
2017-09-19T08:10:39.921Z,118.70
2017-09-19T08:13:08.152Z,112.80
2017-09-19T08:15:35.641Z,129.60
2017-09-19T08:18:03.114Z,127.38
2017-09-19T08:20:31.365Z,137.30
2017-09-19T08:22:58.841Z,111.43
2017-09-19T08:25:26.326Z,128.95
2017-09-19T08:27:53.803Z,144.50
2017-09-19T08:30:21.290Z,126.35
2017-09-19T08:32:48.757Z,145.00
2017-09-19T08:35:16.241Z,144.30
2017-09-19T08:37:43.726Z,122.28
2017-09-19T08:40:11.229Z,126.22
2017-09-19T08:42:39.471Z,119.78
2017-09-19T08:45:06.950Z,128.12
2017-09-19T08:47:34.413Z,139.98
2017-09-19T08:50:01.907Z,123.97
2017-09-19T08:52:29.384Z,134.23
2017-09-19T08:54:56.863Z,133.52
2017-09-19T08:57:24.349Z,127.72
2017-09-19T08:59:51.818Z,146.77
2017-09-19T09:02:19.335Z,162.25
2017-09-19T09:04:46.800Z,147.85
2017-09-19T09:07:14.285Z,171.80
2017-09-19T09:09:41.797Z,142.98
2017-09-19T09:12:10.118Z,140.32
2017-09-19T09:14:37.577Z,149.43
2017-09-19T09:17:05.966Z,157.93
2017-09-19T09:19:33.449Z,169.20
2017-09-19T09:22:00.931Z,139.62
2017-09-19T09:24:28.402Z,137.65
2017-09-19T09:26:55.909Z,134.52
2017-09-19T09:29:23.381Z,124.40
2017-09-19T09:31:50.952Z,131.37
2017-09-19T09:34:18.433Z,127.53
2017-09-19T09:36:45.902Z,105.63
2017-09-19T09:42:05.158Z,113.53
2017-09-19T09:44:32.679Z,123.38
2017-09-19T09:47:00.142Z,133.77
2017-09-19T09:49:27.619Z,104.15
2017-09-19T09:51:55.085Z,114.30
2017-09-19T09:54:22.582Z,109.97
2017-09-19T10:04:03.312Z,122.00
2017-09-19T10:06:33.805Z,102.80
2017-09-19T10:09:05.191Z,110.97
2017-09-19T10:11:37.238Z,84.80
2017-09-19T10:14:09.256Z,101.35
2017-09-19T10:16:39.919Z,92.60
2017-09-19T10:19:14.222Z,96.22
2017-09-19T10:21:45.178Z,78.47
2017-09-19T10:24:14.166Z,66.97
2017-09-19T10:26:42.600Z,73.53
2017-09-19T10:31:42.561Z,71.45
2017-09-19T10:34:13.277Z,74.60
2017-09-19T10:36:44.346Z,67.25
2017-09-19T10:39:13.218Z,65.00
2017-09-19T10:41:41.741Z,66.00
2017-09-19T10:44:10.299Z,66.20
2017-09-19T10:46:38.868Z,66.00
2017-09-19T10:49:07.396Z,70.75
2017-09-19T10:51:38.364Z,65.68
2017-09-19T10:54:07.116Z,64.30
2017-09-19T10:56:37.184Z,48.58
2017-09-19T10:59:07.043Z,48.30
2017-09-19T11:01:36.966Z,51.47
2017-09-19T11:04:08.058Z,47.05
2017-09-19T11:06:36.642Z,51.47
2017-09-19T11:09:08.945Z,54.50
2017-09-19T11:11:41.162Z,55.30
2017-09-19T11:14:13.005Z,64.80
2017-09-19T11:16:44.202Z,50.67
2017-09-19T11:19:15.624Z,53.60
2017-09-19T11:21:47.258Z,58.58
2017-09-19T11:24:19.138Z,55.88
2017-09-19T11:26:50.137Z,52.50
2017-09-19T11:29:20.492Z,50.90
2017-09-19T11:31:50.935Z,54.40
2017-09-19T11:34:22.731Z,58.97
2017-09-19T11:36:53.170Z,60.95
2017-09-19T11:39:25.721Z,53.95
2017-09-19T11:41:56.358Z,50.35
2017-09-19T11:44:27.288Z,58.65
2017-09-19T11:46:58.695Z,49.92
2017-09-19T11:49:29.744Z,48.13
2017-09-19T11:52:01.254Z,44.53
2017-09-19T11:54:33.314Z,46.63
2017-09-19T11:57:03.746Z,41.58
2017-09-19T11:59:34.279Z,41.15
2017-09-19T12:02:05.180Z,33.50
2017-09-19T12:04:36.391Z,37.35
2017-09-19T12:07:06.683Z,38.50
2017-09-19T12:09:37.129Z,45.92
2017-09-19T12:12:07.519Z,47.35
2017-09-19T12:14:38.081Z,46.00
2017-09-19T12:17:08.695Z,41.37
2017-09-19T12:19:40.076Z,42.65
2017-09-19T12:22:10.432Z,40.05
2017-09-19T12:24:41.987Z,46.85
2017-09-19T12:27:13.165Z,43.33
2017-09-19T12:29:44.564Z,42.92
2017-09-19T12:32:16.098Z,43.38
2017-09-19T12:34:46.697Z,39.83
2017-09-19T12:37:18.763Z,43.40
2017-09-19T12:39:51.805Z,44.85
2017-09-19T12:42:24.099Z,40.40
2017-09-19T12:44:56.336Z,46.75
2017-09-19T12:47:28.508Z,39.25
2017-09-19T12:50:01.800Z,38.75
2017-09-19T12:52:34.659Z,42.05
2017-09-19T12:55:08.725Z,39.25
2017-09-19T12:57:40.779Z,36.85
2017-09-19T13:00:12.921Z,38.60
2017-09-19T13:02:45.397Z,37.95
2017-09-19T13:05:17.599Z,35.83
2017-09-19T13:07:50.193Z,43.90
2017-09-19T13:10:22.498Z,35.97
2017-09-19T13:12:55.687Z,41.83
2017-09-19T13:15:27.795Z,45.00
2017-09-19T13:18:00.216Z,44.20
2017-09-19T13:20:32.622Z,42.85
2017-09-19T13:23:05.031Z,40.95
2017-09-19T13:25:37.499Z,47.08
2017-09-19T13:28:09.764Z,41.72
2017-09-19T13:30:42.843Z,40.97
2017-09-19T13:33:19.563Z,39.40
2017-09-19T13:35:52.186Z,39.08
2017-09-19T13:38:24.480Z,38.13
2017-09-19T13:40:57.521Z,40.33
2017-09-19T13:43:29.914Z,38.20
2017-09-19T13:46:02.231Z,34.00
2017-09-19T13:48:34.549Z,38.35
2017-09-19T13:51:07.911Z,38.67
2017-09-19T13:53:39.854Z,34.75
2017-09-19T13:56:12.127Z,34.53
2017-09-19T13:58:44.242Z,39.85
2017-09-19T14:01:16.693Z,39.22
2017-09-19T14:03:48.861Z,36.88
2017-09-19T14:06:21.545Z,36.67
2017-09-19T14:08:54.885Z,32.70
2017-09-19T14:11:26.977Z,35.57
2017-09-19T14:13:59.560Z,33.33
2017-09-19T14:16:31.661Z,33.63
2017-09-19T14:19:04.169Z,28.87
2017-09-19T14:21:36.758Z,29.80
2017-09-19T14:24:09.594Z,30.97
2017-09-19T14:26:42.189Z,27.50
2017-09-19T14:29:14.774Z,26.60
2017-09-19T14:31:47.677Z,28.73
2017-09-19T14:34:20.000Z,30.90
2017-09-19T14:36:53.342Z,31.70
2017-09-19T14:39:25.899Z,25.33
2017-09-19T14:41:58.577Z,30.33
2017-09-19T14:44:30.864Z,31.90
2017-09-19T14:47:04.286Z,29.33
2017-09-19T14:49:36.203Z,26.53
2017-09-19T14:52:08.554Z,27.07
2017-09-19T14:54:40.780Z,27.63
2017-09-19T14:57:14.127Z,31.30
2017-09-19T14:59:46.367Z,29.50
2017-09-19T15:02:19.184Z,29.70
2017-09-19T15:04:51.265Z,28.27
2017-09-19T15:07:23.515Z,33.90
2017-09-19T15:09:56.622Z,30.33
2017-09-19T15:12:29.053Z,29.10
2017-09-19T15:15:01.670Z,30.33
2017-09-19T15:17:34.025Z,32.67
2017-09-19T15:20:06.727Z,36.03
2017-09-19T15:22:39.733Z,34.70
2017-09-19T15:25:12.226Z,28.35
2017-09-19T15:27:44.764Z,34.17
2017-09-19T15:30:17.144Z,29.12
2017-09-19T15:32:49.473Z,33.88
2017-09-19T15:35:21.726Z,31.30
2017-09-19T15:37:54.508Z,50.33
2017-09-19T15:40:26.957Z,38.45
2017-09-19T15:42:59.332Z,30.70
2017-09-19T15:45:31.692Z,37.28
2017-09-19T15:48:04.022Z,28.05
2017-09-19T15:50:36.368Z,28.62
2017-09-19T15:53:09.003Z,30.48
2017-09-19T15:55:41.088Z,30.20
2017-09-19T15:58:13.855Z,36.08
2017-09-19T16:00:46.179Z,31.83
2017-09-19T16:03:19.004Z,34.42
2017-09-19T16:05:51.835Z,32.90
2017-09-19T16:08:24.591Z,33.33
2017-09-19T16:10:57.051Z,31.15
2017-09-19T16:13:29.810Z,31.10
2017-09-19T16:16:01.954Z,34.00
2017-09-19T16:18:34.730Z,34.97
2017-09-19T16:21:07.030Z,31.30
2017-09-19T16:23:39.207Z,31.50
2017-09-19T16:26:11.492Z,34.35
2017-09-19T16:28:43.607Z,28.65
2017-09-19T16:31:16.070Z,28.02
2017-09-19T16:33:48.592Z,29.27
2017-09-19T16:36:20.803Z,30.90
2017-09-19T16:38:53.098Z,29.52
2017-09-19T16:41:25.391Z,34.35
2017-09-19T16:43:58.041Z,34.38
2017-09-19T16:46:30.701Z,32.85
2017-09-19T16:49:03.129Z,29.77
2017-09-19T16:51:35.836Z,30.67
2017-09-19T16:54:09.252Z,30.02
2017-09-19T16:56:41.683Z,33.97
2017-09-19T16:59:13.808Z,37.53
2017-09-19T17:01:45.932Z,33.08
2017-09-19T17:04:18.128Z,34.22
2017-09-19T17:06:50.317Z,34.38
2017-09-19T17:09:22.414Z,38.05
2017-09-19T17:11:55.034Z,34.58
2017-09-19T17:14:27.586Z,36.83
2017-09-19T17:16:59.662Z,38.90
2017-09-19T17:19:32.011Z,35.28
2017-09-19T17:22:04.595Z,40.10
2017-09-19T17:24:37.409Z,41.03
2017-09-19T17:27:10.419Z,49.85
2017-09-19T17:29:42.732Z,51.53
2017-09-19T17:32:15.224Z,48.58
2017-09-19T17:34:48.268Z,48.80
2017-09-19T17:37:20.713Z,41.08
2017-09-19T17:39:53.024Z,40.35
2017-09-19T17:42:25.673Z,40.95
2017-09-19T17:44:57.560Z,41.22
2017-09-19T17:47:29.661Z,36.08
2017-09-19T17:50:01.699Z,43.13
2017-09-19T17:52:33.951Z,39.88
2017-09-19T17:55:06.525Z,40.00
2017-09-19T17:57:39.005Z,41.92
2017-09-19T18:00:11.824Z,43.22
2017-09-19T18:02:44.079Z,41.20
2017-09-19T18:05:17.245Z,38.78
2017-09-19T18:07:49.396Z,40.47
2017-09-19T18:10:21.867Z,44.55
2017-09-19T18:12:54.485Z,41.97
2017-09-19T18:15:27.732Z,45.17
2017-09-19T18:17:59.706Z,39.33
2017-09-19T18:20:31.994Z,44.58
2017-09-19T18:23:04.354Z,46.22
2017-09-19T18:25:36.935Z,44.10
2017-09-19T18:28:09.188Z,44.65
2017-09-19T18:30:41.779Z,42.42
2017-09-19T18:33:14.734Z,44.75
2017-09-19T18:35:47.841Z,58.83
2017-09-19T18:38:20.165Z,49.58
2017-09-19T18:40:52.300Z,43.00
2017-09-19T18:43:24.638Z,51.80
2017-09-19T18:45:56.770Z,47.33
2017-09-19T18:48:28.914Z,40.05
2017-09-19T18:51:01.043Z,45.12
2017-09-19T18:53:33.763Z,49.20
2017-09-19T18:56:06.438Z,42.13
2017-09-19T18:58:39.016Z,45.58
2017-09-19T19:01:11.801Z,49.13
2017-09-19T19:03:44.285Z,46.13
2017-09-19T19:06:17.015Z,46.17
2017-09-19T19:08:49.431Z,49.38
2017-09-19T19:11:22.099Z,44.15
2017-09-19T19:13:55.230Z,41.65
2017-09-19T19:16:28.555Z,40.33
2017-09-19T19:19:01.106Z,47.03
2017-09-19T19:21:33.436Z,45.33
2017-09-19T19:24:05.603Z,41.67
2017-09-19T19:26:38.367Z,44.60
2017-09-19T19:29:11.817Z,49.22
2017-09-19T19:31:44.079Z,42.08
2017-09-19T19:34:16.631Z,42.28
2017-09-19T19:36:49.805Z,44.10
2017-09-19T19:39:22.224Z,40.38
2017-09-19T19:41:56.006Z,46.58
2017-09-19T19:44:28.891Z,45.12
2017-09-19T19:47:01.271Z,45.85
2017-09-19T19:49:33.459Z,46.92
2017-09-19T19:52:05.699Z,43.90
2017-09-19T19:54:38.408Z,48.78
2017-09-19T19:57:10.769Z,47.25
2017-09-19T19:59:43.100Z,49.20
2017-09-19T20:02:15.483Z,48.00
2017-09-19T20:04:48.261Z,48.55
2017-09-19T20:07:20.902Z,49.15
2017-09-19T20:09:52.967Z,54.85
2017-09-19T20:12:25.803Z,47.40
2017-09-19T20:14:58.466Z,49.78
2017-09-19T20:17:30.696Z,54.25
2017-09-19T20:20:03.534Z,56.50
2017-09-19T20:22:36.519Z,51.45
2017-09-19T20:25:09.177Z,51.67
2017-09-19T20:27:42.139Z,48.75
2017-09-19T20:30:14.949Z,56.05
2017-09-19T20:32:47.752Z,64.30
2017-09-19T20:35:20.391Z,54.47
2017-09-19T20:37:53.534Z,56.17
2017-09-19T20:40:26.564Z,57.45
2017-09-19T20:42:59.322Z,49.22
2017-09-19T20:45:32.323Z,52.22
2017-09-19T20:48:05.234Z,50.53
2017-09-19T20:50:38.206Z,50.15
2017-09-19T20:53:10.961Z,53.00
2017-09-19T20:55:43.999Z,53.40
2017-09-19T20:58:17.036Z,62.00
2017-09-19T21:00:50.724Z,54.25
2017-09-19T21:03:28.935Z,59.60
2017-09-19T21:06:07.767Z,59.17
2017-09-19T21:08:46.518Z,55.55
2017-09-19T21:11:25.325Z,56.35
2017-09-19T21:14:04.953Z,53.95
2017-09-19T21:16:44.242Z,52.20
2017-09-19T21:19:22.768Z,53.10
2017-09-19T21:21:56.132Z,54.47
2017-09-19T21:24:29.049Z,60.70
2017-09-19T21:27:02.118Z,59.70
2017-09-19T21:29:35.452Z,65.30
2017-09-19T21:32:09.115Z,60.85
2017-09-19T21:34:42.201Z,64.90
2017-09-19T21:37:14.928Z,55.97
2017-09-19T21:39:47.797Z,54.55
2017-09-19T21:42:20.362Z,60.33
2017-09-19T21:44:53.382Z,58.67
2017-09-19T21:47:26.596Z,59.45
2017-09-19T21:49:59.296Z,61.63
2017-09-19T21:52:32.168Z,63.47
2017-09-19T21:55:05.534Z,65.03
2017-09-19T21:57:38.521Z,62.67
2017-09-19T22:00:11.565Z,62.65
2017-09-19T22:02:44.278Z,62.40
2017-09-19T22:05:16.645Z,66.95
2017-09-19T22:07:49.217Z,63.75
2017-09-19T22:10:21.788Z,61.63
2017-09-19T22:12:54.209Z,68.68
2017-09-19T22:15:27.211Z,58.78
2017-09-19T22:18:00.069Z,66.05
2017-09-19T22:20:33.038Z,67.15
2017-09-19T22:23:05.358Z,63.20
2017-09-19T22:25:37.855Z,66.57
2017-09-19T22:28:10.576Z,67.90
2017-09-19T22:30:43.425Z,65.30
2017-09-19T22:33:15.949Z,73.50
2017-09-19T22:35:48.497Z,70.28
2017-09-19T22:38:21.392Z,73.00
2017-09-19T22:40:54.269Z,69.15
2017-09-19T22:43:27.086Z,66.95
2017-09-19T22:45:59.709Z,68.90
2017-09-19T22:48:32.537Z,68.80
2017-09-19T22:51:05.527Z,65.18
2017-09-19T22:53:38.153Z,62.47
2017-09-19T22:56:10.964Z,68.87
2017-09-19T22:58:43.441Z,63.42
2017-09-19T23:01:16.575Z,63.15
2017-09-19T23:03:49.202Z,64.40
2017-09-19T23:06:21.572Z,66.50
2017-09-19T23:08:53.822Z,68.03
2017-09-19T23:11:26.740Z,68.45
2017-09-19T23:13:59.307Z,66.20
2017-09-19T23:16:31.851Z,69.72
2017-09-19T23:19:04.309Z,65.85
2017-09-19T23:21:37.118Z,68.53
2017-09-19T23:24:09.635Z,66.40
2017-09-19T23:26:42.440Z,72.05
2017-09-19T23:29:15.057Z,69.25
2017-09-19T23:31:47.673Z,68.03
2017-09-19T23:34:20.157Z,65.47
2017-09-19T23:36:52.955Z,69.00
2017-09-19T23:39:25.550Z,71.45
2017-09-19T23:41:58.744Z,68.40
2017-09-19T23:44:31.720Z,69.12
2017-09-19T23:47:05.038Z,66.12
2017-09-19T23:49:37.359Z,67.10
2017-09-19T23:52:10.317Z,64.18
2017-09-19T23:54:42.898Z,73.62
2017-09-19T23:57:15.722Z,67.55
2017-09-19T23:59:48.393Z,72.57
